Terminal Aerodrome Forecast
Issued by NWS

Home | Current Version | Previous Version | Text Only | Print | Product List | Glossary On
Versions: 1 2 3 4 5 6 7 8 9 10 11 12 13 14 15 16
000
FTUS45 KBOI 302223 AAB
TAFTWF
TAF AMD
KTWF 302223Z 3022/0118 24015G25KT P6SM VCTS FEW070 SCT100CB
     FM302300 14011KT P6SM SCT090 BKN150
     FM011000 16012G22KT P6SM VCSH SCT070 BKN100
     FM011400 27010KT P6SM SCT150=

USA.gov is the U.S. government's official web portal to all federal, state and local government web resources and services.